sensor_id;sensor_type;location;lat;lon;timestamp;temperature;humidity
52709;DHT22;38606;52.986;6.980;2024-03-17T00:01:05;6.10;99.90
52709;DHT22;38606;52.986;6.980;2024-03-17T00:03:32;5.00;99.90
52709;DHT22;38606;52.986;6.980;2024-03-17T00:06:01;5.10;99.90
52709;DHT22;38606;52.986;6.980;2024-03-17T00:08:27;4.80;99.90
52709;DHT22;38606;52.986;6.980;2024-03-17T00:10:54;4.90;99.90
52709;DHT22;38606;52.986;6.980;2024-03-17T00:13:20;5.80;99.90
52709;DHT22;38606;52.986;6.980;2024-03-17T00:15:50;5.10;99.90
52709;DHT22;38606;52.986;6.980;2024-03-17T00:18:17;4.90;99.90
52709;DHT22;38606;52.986;6.980;2024-03-17T00:20:43;4.80;99.90
52709;DHT22;38606;52.986;6.980;2024-03-17T00:23:09;5.40;99.90
52709;DHT22;38606;52.986;6.980;2024-03-17T00:25:38;4.50;99.90
52709;DHT22;38606;52.986;6.980;2024-03-17T00:28:04;4.40;99.90
52709;DHT22;38606;52.986;6.980;2024-03-17T00:30:30;4.60;99.90
52709;DHT22;38606;52.986;6.980;2024-03-17T00:32:57;4.40;99.90
52709;DHT22;38606;52.986;6.980;2024-03-17T00:35:24;4.40;99.90
52709;DHT22;38606;52.986;6.980;2024-03-17T00:37:50;5.00;99.90
52709;DHT22;38606;52.986;6.980;2024-03-17T00:40:17;5.60;99.90
52709;DHT22;38606;52.986;6.980;2024-03-17T00:42:43;4.50;99.90
52709;DHT22;38606;52.986;6.980;2024-03-17T00:45:11;5.40;99.90
52709;DHT22;38606;52.986;6.980;2024-03-17T00:47:37;4.70;99.90
52709;DHT22;38606;52.986;6.980;2024-03-17T00:50:03;6.00;99.90
52709;DHT22;38606;52.986;6.980;2024-03-17T00:52:30;4.30;99.90
52709;DHT22;38606;52.986;6.980;2024-03-17T00:54:56;4.30;99.90
52709;DHT22;38606;52.986;6.980;2024-03-17T00:57:22;4.10;99.90
52709;DHT22;38606;52.986;6.980;2024-03-17T00:59:47;4.00;99.90
52709;DHT22;38606;52.986;6.980;2024-03-17T01:02:17;4.60;99.90
52709;DHT22;38606;52.986;6.980;2024-03-17T01:04:43;5.00;99.90
52709;DHT22;38606;52.986;6.980;2024-03-17T01:07:09;4.90;99.90
52709;DHT22;38606;52.986;6.980;2024-03-17T01:09:35;4.20;99.90
52709;DHT22;38606;52.986;6.980;2024-03-17T01:12:01;4.00;99.90
52709;DHT22;38606;52.986;6.980;2024-03-17T01:14:28;4.10;99.90
52709;DHT22;38606;52.986;6.980;2024-03-17T01:16:55;4.10;99.90
52709;DHT22;38606;52.986;6.980;2024-03-17T01:19:21;3.90;99.90
52709;DHT22;38606;52.986;6.980;2024-03-17T01:21:46;3.90;99.90
52709;DHT22;38606;52.986;6.980;2024-03-17T01:24:12;3.80;99.90
52709;DHT22;38606;52.986;6.980;2024-03-17T01:26:38;3.80;99.90
52709;DHT22;38606;52.986;6.980;2024-03-17T01:29:04;3.80;99.90
52709;DHT22;38606;52.986;6.980;2024-03-17T01:31:30;3.80;99.90
52709;DHT22;38606;52.986;6.980;2024-03-17T01:33:56;4.60;99.90
52709;DHT22;38606;52.986;6.980;2024-03-17T01:36:22;4.30;99.90
52709;DHT22;38606;52.986;6.980;2024-03-17T01:38:47;3.70;99.90
52709;DHT22;38606;52.986;6.980;2024-03-17T01:41:13;4.60;99.90
52709;DHT22;38606;52.986;6.980;2024-03-17T01:43:40;4.40;99.90
52709;DHT22;38606;52.986;6.980;2024-03-17T01:46:07;3.70;99.90
52709;DHT22;38606;52.986;6.980;2024-03-17T01:48:37;3.50;99.90
52709;DHT22;38606;52.986;6.980;2024-03-17T01:51:03;3.60;99.90
52709;DHT22;38606;52.986;6.980;2024-03-17T01:53:29;3.60;99.90
52709;DHT22;38606;52.986;6.980;2024-03-17T01:55:57;3.50;99.90
52709;DHT22;38606;52.986;6.980;2024-03-17T01:58:27;3.20;99.90
52709;DHT22;38606;52.986;6.980;2024-03-17T02:00:56;3.40;99.90
52709;DHT22;38606;52.986;6.980;2024-03-17T02:03:21;4.30;99.90
52709;DHT22;38606;52.986;6.980;2024-03-17T02:05:47;3.20;99.90
52709;DHT22;38606;52.986;6.980;2024-03-17T02:08:13;4.40;99.90
52709;DHT22;38606;52.986;6.980;2024-03-17T02:10:39;4.10;99.90
52709;DHT22;38606;52.986;6.980;2024-03-17T02:13:05;3.30;99.90
52709;DHT22;38606;52.986;6.980;2024-03-17T02:15:32;3.20;99.90
52709;DHT22;38606;52.986;6.980;2024-03-17T02:17:58;3.30;99.90
52709;DHT22;38606;52.986;6.980;2024-03-17T02:20:24;3.20;99.90
52709;DHT22;38606;52.986;6.980;2024-03-17T02:23:09;3.70;99.90
52709;DHT22;38606;52.986;6.980;2024-03-17T02:25:35;3.20;99.90
52709;DHT22;38606;52.986;6.980;2024-03-17T02:28:01;3.10;99.90
52709;DHT22;38606;52.986;6.980;2024-03-17T02:30:27;4.00;99.90
52709;DHT22;38606;52.986;6.980;2024-03-17T02:32:54;3.10;99.90
52709;DHT22;38606;52.986;6.980;2024-03-17T02:35:22;2.90;99.90
52709;DHT22;38606;52.986;6.980;2024-03-17T02:37:48;3.10;99.90
52709;DHT22;38606;52.986;6.980;2024-03-17T02:40:13;3.10;99.90
52709;DHT22;38606;52.986;6.980;2024-03-17T02:42:39;1.90;99.90
52709;DHT22;38606;52.986;6.980;2024-03-17T02:45:08;3.20;99.90
52709;DHT22;38606;52.986;6.980;2024-03-17T02:47:34;3.10;99.90
52709;DHT22;38606;52.986;6.980;2024-03-17T02:50:00;3.10;99.90
52709;DHT22;38606;52.986;6.980;2024-03-17T02:52:26;3.10;99.90
52709;DHT22;38606;52.986;6.980;2024-03-17T02:54:52;3.00;99.90
52709;DHT22;38606;52.986;6.980;2024-03-17T02:57:18;2.80;99.90
52709;DHT22;38606;52.986;6.980;2024-03-17T02:59:44;2.90;99.90
52709;DHT22;38606;52.986;6.980;2024-03-17T03:02:12;2.90;99.90
52709;DHT22;38606;52.986;6.980;2024-03-17T03:04:37;4.50;99.90
52709;DHT22;38606;52.986;6.980;2024-03-17T03:07:03;2.90;99.90
52709;DHT22;38606;52.986;6.980;2024-03-17T03:09:29;2.70;99.90
52709;DHT22;38606;52.986;6.980;2024-03-17T03:12:00;3.00;99.90
52709;DHT22;38606;52.986;6.980;2024-03-17T03:14:30;3.00;99.90
52709;DHT22;38606;52.986;6.980;2024-03-17T03:16:56;3.70;99.90
52709;DHT22;38606;52.986;6.980;2024-03-17T03:19:21;2.80;99.90
52709;DHT22;38606;52.986;6.980;2024-03-17T03:21:47;4.20;99.90
52709;DHT22;38606;52.986;6.980;2024-03-17T03:24:16;3.20;99.90
52709;DHT22;38606;52.986;6.980;2024-03-17T03:26:42;4.40;99.90
52709;DHT22;38606;52.986;6.980;2024-03-17T03:29:12;4.00;99.90
52709;DHT22;38606;52.986;6.980;2024-03-17T03:31:40;3.50;99.90
52709;DHT22;38606;52.986;6.980;2024-03-17T03:34:06;3.70;99.90
52709;DHT22;38606;52.986;6.980;2024-03-17T03:36:38;3.20;99.90
52709;DHT22;38606;52.986;6.980;2024-03-17T03:39:04;2.90;99.90
52709;DHT22;38606;52.986;6.980;2024-03-17T03:41:30;2.90;99.90
52709;DHT22;38606;52.986;6.980;2024-03-17T03:43:57;4.10;99.90
52709;DHT22;38606;52.986;6.980;2024-03-17T03:46:22;4.20;99.90
52709;DHT22;38606;52.986;6.980;2024-03-17T03:48:48;3.00;99.90
52709;DHT22;38606;52.986;6.980;2024-03-17T03:51:14;3.00;99.90
52709;DHT22;38606;52.986;6.980;2024-03-17T03:53:40;3.00;99.90
52709;DHT22;38606;52.986;6.980;2024-03-17T03:56:07;4.10;99.90
52709;DHT22;38606;52.986;6.980;2024-03-17T03:58:34;3.20;99.90
52709;DHT22;38606;52.986;6.980;2024-03-17T04:01:07;3.10;99.90
52709;DHT22;38606;52.986;6.980;2024-03-17T04:03:34;2.90;99.90
52709;DHT22;38606;52.986;6.980;2024-03-17T04:06:04;4.20;99.90
52709;DHT22;38606;52.986;6.980;2024-03-17T04:08:31;3.00;99.90
52709;DHT22;38606;52.986;6.980;2024-03-17T04:10:57;3.30;99.90
52709;DHT22;38606;52.986;6.980;2024-03-17T04:13:22;3.10;99.90
52709;DHT22;38606;52.986;6.980;2024-03-17T04:15:48;3.20;99.90
52709;DHT22;38606;52.986;6.980;2024-03-17T04:18:15;3.20;99.90
52709;DHT22;38606;52.986;6.980;2024-03-17T04:20:43;3.30;99.90
52709;DHT22;38606;52.986;6.980;2024-03-17T04:23:08;3.10;99.90
52709;DHT22;38606;52.986;6.980;2024-03-17T04:25:35;3.20;99.90
52709;DHT22;38606;52.986;6.980;2024-03-17T04:28:01;3.50;99.90
52709;DHT22;38606;52.986;6.980;2024-03-17T04:30:27;4.40;99.90
52709;DHT22;38606;52.986;6.980;2024-03-17T04:32:52;3.30;99.90
52709;DHT22;38606;52.986;6.980;2024-03-17T04:35:18;3.50;99.90
52709;DHT22;38606;52.986;6.980;2024-03-17T04:37:44;3.40;99.90
52709;DHT22;38606;52.986;6.980;2024-03-17T04:40:10;3.90;99.90
52709;DHT22;38606;52.986;6.980;2024-03-17T04:42:36;3.70;99.90
52709;DHT22;38606;52.986;6.980;2024-03-17T04:45:04;3.50;99.90
52709;DHT22;38606;52.986;6.980;2024-03-17T04:47:30;3.60;99.90
52709;DHT22;38606;52.986;6.980;2024-03-17T04:49:56;3.70;99.90
52709;DHT22;38606;52.986;6.980;2024-03-17T04:52:21;5.30;99.90
52709;DHT22;38606;52.986;6.980;2024-03-17T04:54:47;3.80;99.90
52709;DHT22;38606;52.986;6.980;2024-03-17T04:57:13;4.00;99.90
52709;DHT22;38606;52.986;6.980;2024-03-17T04:59:39;3.80;99.90
52709;DHT22;38606;52.986;6.980;2024-03-17T05:02:05;3.80;99.90
52709;DHT22;38606;52.986;6.980;2024-03-17T05:04:31;3.60;99.90
52709;DHT22;38606;52.986;6.980;2024-03-17T05:06:57;3.90;99.90
52709;DHT22;38606;52.986;6.980;2024-03-17T05:09:23;4.80;99.90
52709;DHT22;38606;52.986;6.980;2024-03-17T05:11:50;3.90;99.90
52709;DHT22;38606;52.986;6.980;2024-03-17T05:14:19;3.90;99.90
52709;DHT22;38606;52.986;6.980;2024-03-17T05:16:49;4.30;99.90
52709;DHT22;38606;52.986;6.980;2024-03-17T05:19:15;4.30;99.90
52709;DHT22;38606;52.986;6.980;2024-03-17T05:21:43;3.90;99.90
52709;DHT22;38606;52.986;6.980;2024-03-17T05:24:10;4.10;99.90
52709;DHT22;38606;52.986;6.980;2024-03-17T05:26:37;5.40;99.90
52709;DHT22;38606;52.986;6.980;2024-03-17T05:29:03;3.90;99.90
52709;DHT22;38606;52.986;6.980;2024-03-17T05:31:29;5.70;99.90
52709;DHT22;38606;52.986;6.980;2024-03-17T05:33:57;5.10;99.90
52709;DHT22;38606;52.986;6.980;2024-03-17T05:36:22;5.00;99.90
52709;DHT22;38606;52.986;6.980;2024-03-17T05:38:48;4.00;99.90
52709;DHT22;38606;52.986;6.980;2024-03-17T05:41:14;5.70;99.90
52709;DHT22;38606;52.986;6.980;2024-03-17T05:43:40;4.30;99.90
52709;DHT22;38606;52.986;6.980;2024-03-17T05:46:07;4.40;99.90
52709;DHT22;38606;52.986;6.980;2024-03-17T05:48:34;4.30;99.90
52709;DHT22;38606;52.986;6.980;2024-03-17T05:51:03;5.70;99.90
52709;DHT22;38606;52.986;6.980;2024-03-17T05:53:29;4.00;99.90
52709;DHT22;38606;52.986;6.980;2024-03-17T05:55:59;5.30;99.90
52709;DHT22;38606;52.986;6.980;2024-03-17T05:58:24;4.20;99.90
52709;DHT22;38606;52.986;6.980;2024-03-17T06:00:50;4.40;99.90
52709;DHT22;38606;52.986;6.980;2024-03-17T06:03:16;4.40;99.90
52709;DHT22;38606;52.986;6.980;2024-03-17T06:05:43;4.20;99.90
52709;DHT22;38606;52.986;6.980;2024-03-17T06:08:11;5.30;99.90
52709;DHT22;38606;52.986;6.980;2024-03-17T06:10:37;5.90;99.90
52709;DHT22;38606;52.986;6.980;2024-03-17T06:13:04;4.90;99.90
52709;DHT22;38606;52.986;6.980;2024-03-17T06:15:30;4.30;99.90
52709;DHT22;38606;52.986;6.980;2024-03-17T06:17:55;4.50;99.90
52709;DHT22;38606;52.986;6.980;2024-03-17T06:20:23;6.20;99.90
52709;DHT22;38606;52.986;6.980;2024-03-17T06:22:55;4.50;99.90
52709;DHT22;38606;52.986;6.980;2024-03-17T06:25:22;4.40;99.90
52709;DHT22;38606;52.986;6.980;2024-03-17T06:27:50;4.60;99.90
52709;DHT22;38606;52.986;6.980;2024-03-17T06:30:16;4.50;99.90
52709;DHT22;38606;52.986;6.980;2024-03-17T06:32:42;4.60;99.90
52709;DHT22;38606;52.986;6.980;2024-03-17T06:35:11;4.40;99.90
52709;DHT22;38606;52.986;6.980;2024-03-17T06:37:37;5.60;99.90
52709;DHT22;38606;52.986;6.980;2024-03-17T06:40:04;5.60;99.90
52709;DHT22;38606;52.986;6.980;2024-03-17T06:42:31;4.70;99.90
52709;DHT22;38606;52.986;6.980;2024-03-17T06:44:57;5.30;99.90
52709;DHT22;38606;52.986;6.980;2024-03-17T06:47:23;4.60;99.90
52709;DHT22;38606;52.986;6.980;2024-03-17T06:49:49;4.80;99.90
52709;DHT22;38606;52.986;6.980;2024-03-17T06:52:15;4.80;99.90
52709;DHT22;38606;52.986;6.980;2024-03-17T06:54:40;4.80;99.90
52709;DHT22;38606;52.986;6.980;2024-03-17T06:57:06;5.80;99.90
52709;DHT22;38606;52.986;6.980;2024-03-17T06:59:35;4.70;99.90
52709;DHT22;38606;52.986;6.980;2024-03-17T07:02:01;5.40;99.90
52709;DHT22;38606;52.986;6.980;2024-03-17T07:04:26;4.90;99.90
52709;DHT22;38606;52.986;6.980;2024-03-17T07:06:52;6.20;99.90
52709;DHT22;38606;52.986;6.980;2024-03-17T07:09:18;6.20;99.90
52709;DHT22;38606;52.986;6.980;2024-03-17T07:11:44;5.10;99.90
52709;DHT22;38606;52.986;6.980;2024-03-17T07:14:12;5.10;99.90
52709;DHT22;38606;52.986;6.980;2024-03-17T07:16:38;5.30;99.90
52709;DHT22;38606;52.986;6.980;2024-03-17T07:19:03;5.50;99.90
52709;DHT22;38606;52.986;6.980;2024-03-17T07:21:30;5.70;99.90
52709;DHT22;38606;52.986;6.980;2024-03-17T07:23:57;5.70;99.90
52709;DHT22;38606;52.986;6.980;2024-03-17T07:26:25;6.20;99.90
52709;DHT22;38606;52.986;6.980;2024-03-17T07:28:50;6.60;99.90
52709;DHT22;38606;52.986;6.980;2024-03-17T07:31:16;6.70;99.90
52709;DHT22;38606;52.986;6.980;2024-03-17T07:33:42;6.50;99.90
52709;DHT22;38606;52.986;6.980;2024-03-17T07:36:08;6.00;99.90
52709;DHT22;38606;52.986;6.980;2024-03-17T07:38:35;6.00;99.90
52709;DHT22;38606;52.986;6.980;2024-03-17T07:41:07;7.20;99.90
52709;DHT22;38606;52.986;6.980;2024-03-17T07:43:37;6.10;99.90
52709;DHT22;38606;52.986;6.980;2024-03-17T07:46:07;6.30;99.90
52709;DHT22;38606;52.986;6.980;2024-03-17T07:48:35;6.80;99.90
52709;DHT22;38606;52.986;6.980;2024-03-17T07:53:37;7.00;99.90
52709;DHT22;38606;52.986;6.980;2024-03-17T07:58:33;6.60;99.90
52709;DHT22;38606;52.986;6.980;2024-03-17T08:01:12;6.70;99.90
52709;DHT22;38606;52.986;6.980;2024-03-17T08:03:40;6.80;99.90
52709;DHT22;38606;52.986;6.980;2024-03-17T08:06:07;7.90;99.90
52709;DHT22;38606;52.986;6.980;2024-03-17T08:08:33;7.70;99.90
52709;DHT22;38606;52.986;6.980;2024-03-17T08:10:59;6.80;99.90
52709;DHT22;38606;52.986;6.980;2024-03-17T08:13:26;8.20;99.90
52709;DHT22;38606;52.986;6.980;2024-03-17T08:15:57;7.20;99.90
52709;DHT22;38606;52.986;6.980;2024-03-17T08:18:24;7.30;99.90
52709;DHT22;38606;52.986;6.980;2024-03-17T08:20:50;7.40;99.90
52709;DHT22;38606;52.986;6.980;2024-03-17T08:23:16;7.20;99.90
52709;DHT22;38606;52.986;6.980;2024-03-17T08:25:42;7.30;99.90
52709;DHT22;38606;52.986;6.980;2024-03-17T08:28:07;7.90;99.90
52709;DHT22;38606;52.986;6.980;2024-03-17T08:30:33;7.90;99.90
52709;DHT22;38606;52.986;6.980;2024-03-17T08:33:00;8.00;99.90
52709;DHT22;38606;52.986;6.980;2024-03-17T08:35:26;8.20;99.90
52709;DHT22;38606;52.986;6.980;2024-03-17T08:37:52;8.30;99.90
52709;DHT22;38606;52.986;6.980;2024-03-17T08:40:20;8.20;99.90
52709;DHT22;38606;52.986;6.980;2024-03-17T08:42:46;8.40;99.90
52709;DHT22;38606;52.986;6.980;2024-03-17T08:45:12;8.70;99.90
52709;DHT22;38606;52.986;6.980;2024-03-17T08:47:38;8.50;99.90
52709;DHT22;38606;52.986;6.980;2024-03-17T08:50:04;8.60;99.90
52709;DHT22;38606;52.986;6.980;2024-03-17T08:52:36;8.40;99.90
52709;DHT22;38606;52.986;6.980;2024-03-17T08:55:02;8.50;99.90
52709;DHT22;38606;52.986;6.980;2024-03-17T08:57:35;8.60;99.90
52709;DHT22;38606;52.986;6.980;2024-03-17T09:00:01;8.50;99.90
52709;DHT22;38606;52.986;6.980;2024-03-17T09:02:27;9.50;99.90
52709;DHT22;38606;52.986;6.980;2024-03-17T09:04:53;10.10;99.90
52709;DHT22;38606;52.986;6.980;2024-03-17T09:07:18;8.60;99.90
52709;DHT22;38606;52.986;6.980;2024-03-17T09:09:46;8.70;99.90
52709;DHT22;38606;52.986;6.980;2024-03-17T09:12:13;9.00;99.90
52709;DHT22;38606;52.986;6.980;2024-03-17T09:14:39;9.80;99.90
52709;DHT22;38606;52.986;6.980;2024-03-17T09:17:06;9.80;99.90
52709;DHT22;38606;52.986;6.980;2024-03-17T09:19:32;9.10;99.90
52709;DHT22;38606;52.986;6.980;2024-03-17T09:21:59;9.20;99.90
52709;DHT22;38606;52.986;6.980;2024-03-17T09:24:24;9.80;99.90
52709;DHT22;38606;52.986;6.980;2024-03-17T09:26:51;9.40;99.90
52709;DHT22;38606;52.986;6.980;2024-03-17T09:29:17;9.10;99.90
52709;DHT22;38606;52.986;6.980;2024-03-17T09:31:43;9.30;99.90
52709;DHT22;38606;52.986;6.980;2024-03-17T09:34:09;9.40;99.90
52709;DHT22;38606;52.986;6.980;2024-03-17T09:36:34;9.30;99.90
52709;DHT22;38606;52.986;6.980;2024-03-17T09:39:01;9.50;99.90
52709;DHT22;38606;52.986;6.980;2024-03-17T09:41:30;9.60;99.90
52709;DHT22;38606;52.986;6.980;2024-03-17T09:43:59;9.50;99.90
52709;DHT22;38606;52.986;6.980;2024-03-17T09:46:26;11.00;99.90
52709;DHT22;38606;52.986;6.980;2024-03-17T09:48:53;9.70;99.90
52709;DHT22;38606;52.986;6.980;2024-03-17T09:51:21;9.90;99.90
52709;DHT22;38606;52.986;6.980;2024-03-17T09:53:47;9.90;99.90
52709;DHT22;38606;52.986;6.980;2024-03-17T09:56:15;11.10;99.90
52709;DHT22;38606;52.986;6.980;2024-03-17T09:58:42;10.00;99.90
52709;DHT22;38606;52.986;6.980;2024-03-17T10:01:07;9.90;99.90
52709;DHT22;38606;52.986;6.980;2024-03-17T10:03:50;10.00;99.90
52709;DHT22;38606;52.986;6.980;2024-03-17T10:06:25;10.40;99.90
52709;DHT22;38606;52.986;6.980;2024-03-17T10:08:56;10.40;99.90
52709;DHT22;38606;52.986;6.980;2024-03-17T10:11:24;10.30;99.90
52709;DHT22;38606;52.986;6.980;2024-03-17T10:14:04;10.40;99.90
52709;DHT22;38606;52.986;6.980;2024-03-17T10:16:32;10.60;99.90
52709;DHT22;38606;52.986;6.980;2024-03-17T10:19:13;10.80;99.90
52709;DHT22;38606;52.986;6.980;2024-03-17T10:21:41;11.00;99.90
52709;DHT22;38606;52.986;6.980;2024-03-17T10:24:19;11.00;99.90
52709;DHT22;38606;52.986;6.980;2024-03-17T10:26:53;11.00;99.90
52709;DHT22;38606;52.986;6.980;2024-03-17T10:31:50;11.20;99.90
52709;DHT22;38606;52.986;6.980;2024-03-17T10:34:16;11.40;99.90
52709;DHT22;38606;52.986;6.980;2024-03-17T10:36:45;11.50;99.90
52709;DHT22;38606;52.986;6.980;2024-03-17T10:39:26;11.50;99.90
52709;DHT22;38606;52.986;6.980;2024-03-17T10:42:01;11.70;99.90
52709;DHT22;38606;52.986;6.980;2024-03-17T10:44:28;11.60;99.90
52709;DHT22;38606;52.986;6.980;2024-03-17T10:46:58;12.50;99.90
52709;DHT22;38606;52.986;6.980;2024-03-17T10:49:31;11.90;99.90
52709;DHT22;38606;52.986;6.980;2024-03-17T10:51:58;12.10;99.90
52709;DHT22;38606;52.986;6.980;2024-03-17T10:54:25;12.20;99.90
52709;DHT22;38606;52.986;6.980;2024-03-17T10:56:55;12.40;99.90
52709;DHT22;38606;52.986;6.980;2024-03-17T10:59:46;12.40;99.90
52709;DHT22;38606;52.986;6.980;2024-03-17T11:02:21;12.50;99.90
52709;DHT22;38606;52.986;6.980;2024-03-17T11:05:05;12.40;99.90
52709;DHT22;38606;52.986;6.980;2024-03-17T11:07:32;12.50;99.90
52709;DHT22;38606;52.986;6.980;2024-03-17T11:09:59;12.50;99.90
52709;DHT22;38606;52.986;6.980;2024-03-17T11:20:43;13.80;99.90
52709;DHT22;38606;52.986;6.980;2024-03-17T11:23:09;12.50;99.90
52709;DHT22;38606;52.986;6.980;2024-03-17T11:28:01;12.50;99.90
52709;DHT22;38606;52.986;6.980;2024-03-17T11:30:48;12.30;99.90
52709;DHT22;38606;52.986;6.980;2024-03-17T11:47:03;12.60;99.90
52709;DHT22;38606;52.986;6.980;2024-03-17T11:49:41;12.60;99.90
52709;DHT22;38606;52.986;6.980;2024-03-17T11:52:14;12.90;99.90
52709;DHT22;38606;52.986;6.980;2024-03-17T11:54:44;12.60;99.90
52709;DHT22;38606;52.986;6.980;2024-03-17T11:57:20;12.80;99.90
52709;DHT22;38606;52.986;6.980;2024-03-17T11:59:51;12.90;99.90
52709;DHT22;38606;52.986;6.980;2024-03-17T12:02:20;12.90;99.90
52709;DHT22;38606;52.986;6.980;2024-03-17T12:04:48;13.00;99.90
52709;DHT22;38606;52.986;6.980;2024-03-17T12:07:16;12.90;99.90
52709;DHT22;38606;52.986;6.980;2024-03-17T12:09:43;12.90;99.90
52709;DHT22;38606;52.986;6.980;2024-03-17T12:12:11;12.90;99.90
52709;DHT22;38606;52.986;6.980;2024-03-17T12:14:39;12.90;99.90
52709;DHT22;38606;52.986;6.980;2024-03-17T12:17:07;12.10;99.90
52709;DHT22;38606;52.986;6.980;2024-03-17T12:19:34;13.00;99.90
52709;DHT22;38606;52.986;6.980;2024-03-17T12:22:01;12.90;99.90
52709;DHT22;38606;52.986;6.980;2024-03-17T12:24:31;12.80;99.90
52709;DHT22;38606;52.986;6.980;2024-03-17T12:26:58;12.80;99.90
52709;DHT22;38606;52.986;6.980;2024-03-17T12:29:32;13.10;99.90
52709;DHT22;38606;52.986;6.980;2024-03-17T12:32:05;13.10;99.90
52709;DHT22;38606;52.986;6.980;2024-03-17T12:34:34;13.10;99.90
52709;DHT22;38606;52.986;6.980;2024-03-17T12:37:00;11.90;99.90
52709;DHT22;38606;52.986;6.980;2024-03-17T12:39:32;12.80;99.90
52709;DHT22;38606;52.986;6.980;2024-03-17T12:44:37;12.90;99.90
52709;DHT22;38606;52.986;6.980;2024-03-17T12:47:20;12.90;99.90
52709;DHT22;38606;52.986;6.980;2024-03-17T12:49:56;13.10;99.90
52709;DHT22;38606;52.986;6.980;2024-03-17T12:52:51;13.00;99.90
52709;DHT22;38606;52.986;6.980;2024-03-17T12:55:20;13.00;99.90
52709;DHT22;38606;52.986;6.980;2024-03-17T13:01:02;13.00;99.90
52709;DHT22;38606;52.986;6.980;2024-03-17T13:03:36;12.70;99.90
52709;DHT22;38606;52.986;6.980;2024-03-17T13:06:03;12.90;99.90
52709;DHT22;38606;52.986;6.980;2024-03-17T13:08:31;12.80;99.90
52709;DHT22;38606;52.986;6.980;2024-03-17T13:10:58;12.90;99.90
52709;DHT22;38606;52.986;6.980;2024-03-17T13:13:24;12.80;99.90
52709;DHT22;38606;52.986;6.980;2024-03-17T13:15:49;12.80;99.90
52709;DHT22;38606;52.986;6.980;2024-03-17T13:18:19;13.00;99.90
52709;DHT22;38606;52.986;6.980;2024-03-17T13:20:46;12.70;99.90
52709;DHT22;38606;52.986;6.980;2024-03-17T13:23:12;12.80;99.90
52709;DHT22;38606;52.986;6.980;2024-03-17T13:25:38;12.80;99.90
52709;DHT22;38606;52.986;6.980;2024-03-17T13:28:05;12.80;99.90
52709;DHT22;38606;52.986;6.980;2024-03-17T13:30:32;12.80;99.90
52709;DHT22;38606;52.986;6.980;2024-03-17T13:33:02;12.50;99.90
52709;DHT22;38606;52.986;6.980;2024-03-17T13:35:34;12.70;99.90
52709;DHT22;38606;52.986;6.980;2024-03-17T13:38:00;12.70;99.90
52709;DHT22;38606;52.986;6.980;2024-03-17T13:40:28;12.60;99.90
52709;DHT22;38606;52.986;6.980;2024-03-17T13:42:56;13.90;99.90
52709;DHT22;38606;52.986;6.980;2024-03-17T13:45:24;12.80;99.90
52709;DHT22;38606;52.986;6.980;2024-03-17T13:47:56;12.50;99.90
52709;DHT22;38606;52.986;6.980;2024-03-17T13:50:22;12.60;99.90
52709;DHT22;38606;52.986;6.980;2024-03-17T13:52:48;12.50;99.90
52709;DHT22;38606;52.986;6.980;2024-03-17T13:55:18;12.60;99.90
52709;DHT22;38606;52.986;6.980;2024-03-17T13:57:49;12.80;99.90
52709;DHT22;38606;52.986;6.980;2024-03-17T14:00:23;12.50;99.90
52709;DHT22;38606;52.986;6.980;2024-03-17T14:02:50;12.60;99.90
52709;DHT22;38606;52.986;6.980;2024-03-17T14:05:23;12.70;99.90
52709;DHT22;38606;52.986;6.980;2024-03-17T14:07:51;12.80;99.90
52709;DHT22;38606;52.986;6.980;2024-03-17T14:10:17;12.40;99.90
52709;DHT22;38606;52.986;6.980;2024-03-17T14:12:44;12.40;99.90
52709;DHT22;38606;52.986;6.980;2024-03-17T14:15:11;12.60;99.90
52709;DHT22;38606;52.986;6.980;2024-03-17T14:17:38;12.60;99.90
52709;DHT22;38606;52.986;6.980;2024-03-17T14:20:04;12.60;99.90
52709;DHT22;38606;52.986;6.980;2024-03-17T14:22:34;12.50;99.90
52709;DHT22;38606;52.986;6.980;2024-03-17T14:25:00;12.50;99.90
52709;DHT22;38606;52.986;6.980;2024-03-17T14:27:25;12.40;99.90
52709;DHT22;38606;52.986;6.980;2024-03-17T14:29:53;12.40;99.90
52709;DHT22;38606;52.986;6.980;2024-03-17T14:32:19;12.60;99.90
52709;DHT22;38606;52.986;6.980;2024-03-17T14:34:46;12.50;99.90
52709;DHT22;38606;52.986;6.980;2024-03-17T14:37:12;12.60;99.90
52709;DHT22;38606;52.986;6.980;2024-03-17T14:39:39;12.30;99.90
52709;DHT22;38606;52.986;6.980;2024-03-17T14:42:06;12.30;99.90
52709;DHT22;38606;52.986;6.980;2024-03-17T14:44:34;12.30;99.90
52709;DHT22;38606;52.986;6.980;2024-03-17T14:47:03;12.40;99.90
52709;DHT22;38606;52.986;6.980;2024-03-17T14:49:33;12.50;99.90
52709;DHT22;38606;52.986;6.980;2024-03-17T14:51:59;12.60;99.90
52709;DHT22;38606;52.986;6.980;2024-03-17T14:54:25;12.40;99.90
52709;DHT22;38606;52.986;6.980;2024-03-17T14:56:51;12.40;99.90
52709;DHT22;38606;52.986;6.980;2024-03-17T14:59:19;12.40;99.90
52709;DHT22;38606;52.986;6.980;2024-03-17T15:01:46;12.30;99.90
52709;DHT22;38606;52.986;6.980;2024-03-17T15:04:13;12.10;99.90
52709;DHT22;38606;52.986;6.980;2024-03-17T15:06:39;12.30;99.90
52709;DHT22;38606;52.986;6.980;2024-03-17T15:09:05;12.20;99.90
52709;DHT22;38606;52.986;6.980;2024-03-17T15:11:31;12.30;99.90
52709;DHT22;38606;52.986;6.980;2024-03-17T15:13:57;12.20;99.90
52709;DHT22;38606;52.986;6.980;2024-03-17T15:16:23;12.10;99.90
52709;DHT22;38606;52.986;6.980;2024-03-17T15:18:49;12.10;99.90
52709;DHT22;38606;52.986;6.980;2024-03-17T15:21:16;12.10;99.90
52709;DHT22;38606;52.986;6.980;2024-03-17T15:23:41;11.90;99.90
52709;DHT22;38606;52.986;6.980;2024-03-17T15:26:07;12.00;99.90
52709;DHT22;38606;52.986;6.980;2024-03-17T15:28:39;11.90;99.90
52709;DHT22;38606;52.986;6.980;2024-03-17T15:31:09;12.10;99.90
52709;DHT22;38606;52.986;6.980;2024-03-17T15:33:36;12.00;99.90
52709;DHT22;38606;52.986;6.980;2024-03-17T15:36:07;11.80;99.90
52709;DHT22;38606;52.986;6.980;2024-03-17T15:38:34;12.00;99.90
52709;DHT22;38606;52.986;6.980;2024-03-17T15:41:07;12.10;99.90
52709;DHT22;38606;52.986;6.980;2024-03-17T15:43:39;12.00;99.90
52709;DHT22;38606;52.986;6.980;2024-03-17T15:46:08;12.00;99.90
52709;DHT22;38606;52.986;6.980;2024-03-17T15:48:34;11.90;99.90
52709;DHT22;38606;52.986;6.980;2024-03-17T15:50:59;11.80;99.90
52709;DHT22;38606;52.986;6.980;2024-03-17T15:53:25;11.70;99.90
52709;DHT22;38606;52.986;6.980;2024-03-17T15:55:57;12.00;99.90
52709;DHT22;38606;52.986;6.980;2024-03-17T15:58:24;11.80;99.90
52709;DHT22;38606;52.986;6.980;2024-03-17T16:00:50;12.50;99.90
52709;DHT22;38606;52.986;6.980;2024-03-17T16:03:15;12.00;99.90
52709;DHT22;38606;52.986;6.980;2024-03-17T16:05:47;11.90;99.90
52709;DHT22;38606;52.986;6.980;2024-03-17T16:08:17;11.90;99.90
52709;DHT22;38606;52.986;6.980;2024-03-17T16:10:52;11.80;99.90
52709;DHT22;38606;52.986;6.980;2024-03-17T16:13:22;10.40;99.90
52709;DHT22;38606;52.986;6.980;2024-03-17T16:15:51;11.60;99.90
52709;DHT22;38606;52.986;6.980;2024-03-17T16:18:22;11.80;99.90
52709;DHT22;38606;52.986;6.980;2024-03-17T16:21:10;11.80;99.90